createdAt,value
2019-01-21T00:00:57.732Z,4.94
2019-01-21T00:03:25.574Z,4.88
2019-01-21T00:05:52.527Z,4.87
2019-01-21T00:08:19.484Z,4.83
2019-01-21T00:10:46.440Z,4.85
2019-01-21T00:13:13.378Z,4.91
2019-01-21T00:15:40.371Z,4.91
2019-01-21T00:18:07.507Z,4.96
2019-01-21T00:20:34.489Z,4.94
2019-01-21T00:23:02.495Z,4.90
2019-01-21T00:25:28.495Z,4.89
2019-01-21T00:27:55.450Z,4.92
2019-01-21T00:30:22.395Z,4.89
2019-01-21T00:32:49.360Z,4.86
2019-01-21T00:35:16.346Z,4.81
2019-01-21T00:37:43.306Z,4.76
2019-01-21T00:40:10.255Z,4.79
2019-01-21T00:42:37.221Z,4.75
2019-01-21T00:45:04.164Z,4.78
2019-01-21T00:47:31.167Z,4.79
2019-01-21T00:49:58.129Z,4.79
2019-01-21T00:52:25.072Z,4.76
2019-01-21T00:54:52.028Z,4.77
2019-01-21T00:57:18.974Z,4.80
2019-01-21T00:59:46.004Z,4.79
2019-01-21T01:02:13.068Z,4.81
2019-01-21T01:04:40.018Z,4.84
2019-01-21T01:07:06.976Z,4.78
2019-01-21T01:09:33.924Z,4.79
2019-01-21T01:12:01.039Z,4.81
2019-01-21T01:14:27.991Z,4.81
2019-01-21T01:16:55.019Z,4.80
2019-01-21T01:19:21.988Z,4.86
2019-01-21T01:21:49.119Z,4.91
2019-01-21T01:24:16.079Z,4.89
2019-01-21T01:26:43.202Z,4.84
2019-01-21T01:29:10.167Z,4.79
2019-01-21T01:31:37.127Z,4.79
2019-01-21T01:34:04.071Z,4.83
2019-01-21T01:36:31.119Z,4.90
2019-01-21T01:38:58.060Z,4.92
2019-01-21T01:41:25.018Z,4.88
2019-01-21T01:43:51.969Z,4.80
2019-01-21T01:46:18.993Z,4.80
2019-01-21T01:48:46.634Z,4.80
2019-01-21T01:51:12.901Z,4.77
2019-01-21T01:53:39.875Z,4.69
2019-01-21T01:56:06.785Z,4.56
2019-01-21T01:58:33.730Z,4.47
2019-01-21T02:01:00.780Z,4.45
2019-01-21T02:03:27.718Z,4.45
2019-01-21T02:05:54.668Z,4.41
2019-01-21T02:08:21.619Z,4.40
2019-01-21T02:10:48.595Z,4.40
2019-01-21T02:13:15.538Z,4.32
2019-01-21T02:15:42.479Z,4.29
2019-01-21T02:18:09.473Z,4.21
2019-01-21T02:20:36.429Z,4.18
2019-01-21T02:23:03.891Z,4.20
2019-01-21T02:25:32.587Z,4.20
2019-01-21T02:27:59.543Z,4.13
2019-01-21T02:30:26.662Z,4.14
2019-01-21T02:32:58.427Z,4.13
2019-01-21T02:35:26.175Z,4.13
2019-01-21T02:40:58.757Z,4.45
2019-01-21T02:43:26.341Z,4.25
2019-01-21T02:46:08.255Z,4.15
2019-01-21T02:48:38.058Z,4.06
2019-01-21T02:51:06.704Z,3.98
2019-01-21T02:53:35.834Z,3.89
2019-01-21T02:56:06.742Z,3.85
2019-01-21T02:58:39.762Z,3.80
2019-01-21T03:01:09.614Z,3.77
2019-01-21T03:03:37.199Z,3.70
2019-01-21T03:06:19.131Z,3.71
2019-01-21T03:08:47.859Z,3.71
2019-01-21T03:11:26.666Z,3.67
2019-01-21T03:13:58.501Z,3.67
2019-01-21T03:16:25.450Z,3.58
2019-01-21T03:18:52.390Z,3.56
2019-01-21T03:21:23.147Z,3.51
2019-01-21T03:23:53.150Z,3.51
2019-01-21T03:26:23.762Z,3.46
2019-01-21T03:28:51.655Z,3.45
2019-01-21T03:31:33.505Z,3.48
2019-01-21T03:34:04.232Z,3.49
2019-01-21T03:36:32.851Z,3.49
2019-01-21T03:39:02.769Z,3.40
2019-01-21T03:41:31.638Z,3.41
2019-01-21T03:43:59.370Z,3.43
2019-01-21T03:46:42.158Z,3.46
2019-01-21T03:49:14.892Z,3.49
2019-01-21T03:51:57.623Z,3.49
2019-01-21T03:54:24.575Z,3.43
2019-01-21T03:56:51.537Z,3.47
2019-01-21T03:59:21.257Z,3.44
2019-01-21T04:01:48.211Z,3.39
2019-01-21T04:07:10.107Z,3.83
2019-01-21T04:09:37.808Z,3.69
2019-01-21T04:12:20.427Z,3.56
2019-01-21T04:15:04.177Z,3.45
2019-01-21T04:17:36.901Z,3.37
2019-01-21T04:20:09.716Z,3.30
2019-01-21T04:22:40.495Z,3.25
2019-01-21T04:25:08.270Z,3.19
2019-01-21T04:27:39.079Z,3.18
2019-01-21T04:30:17.053Z,3.16
2019-01-21T04:32:44.029Z,3.14
2019-01-21T04:35:15.781Z,3.16
2019-01-21T04:37:43.552Z,3.12
2019-01-21T04:40:12.307Z,3.09
2019-01-21T04:42:43.001Z,3.05
2019-01-21T04:45:14.711Z,3.12
2019-01-21T04:47:56.662Z,3.15
2019-01-21T04:50:28.459Z,3.10
2019-01-21T04:52:58.495Z,3.07
2019-01-21T04:55:28.377Z,3.08
2019-01-21T04:57:58.113Z,3.10
2019-01-21T05:00:26.891Z,3.00
2019-01-21T05:02:53.840Z,2.87
2019-01-21T05:05:32.695Z,2.85
2019-01-21T05:08:02.503Z,2.85
2019-01-21T05:10:34.122Z,2.90
2019-01-21T05:13:18.831Z,2.93
2019-01-21T05:15:48.697Z,2.94
2019-01-21T05:18:30.532Z,2.89
2019-01-21T05:21:03.325Z,2.89
2019-01-21T05:23:33.264Z,2.89
2019-01-21T05:26:01.980Z,2.89
2019-01-21T05:28:30.703Z,2.85
2019-01-21T05:31:13.615Z,2.89
2019-01-21T05:33:46.376Z,2.87
2019-01-21T05:36:19.266Z,2.85
2019-01-21T05:39:02.078Z,2.82
2019-01-21T05:41:33.001Z,2.70
2019-01-21T05:44:14.825Z,2.68
2019-01-21T05:46:46.574Z,2.74
2019-01-21T05:49:19.429Z,2.76
2019-01-21T05:51:56.266Z,2.79
2019-01-21T05:54:24.248Z,2.84
2019-01-21T05:56:52.100Z,2.89
2019-01-21T05:59:20.962Z,2.92
2019-01-21T06:01:53.796Z,2.94
2019-01-21T06:04:21.600Z,3.01
2019-01-21T06:06:51.533Z,3.04
2019-01-21T06:09:21.235Z,3.04
2019-01-21T06:11:50.854Z,3.05
2019-01-21T06:14:23.850Z,3.00
2019-01-21T06:17:06.610Z,2.84
2019-01-21T06:19:39.549Z,2.69
2019-01-21T06:22:09.637Z,2.77
2019-01-21T06:24:48.411Z,2.88
2019-01-21T06:30:14.199Z,3.31
2019-01-21T06:32:43.847Z,3.13
2019-01-21T06:35:12.607Z,3.13
2019-01-21T06:37:40.397Z,3.21
2019-01-21T06:40:09.442Z,3.13
2019-01-21T06:42:52.183Z,3.14
2019-01-21T06:45:21.997Z,3.13
2019-01-21T06:48:06.746Z,3.12
2019-01-21T06:50:36.587Z,3.12
2019-01-21T06:53:14.496Z,3.16
2019-01-21T06:55:42.130Z,3.11
2019-01-21T06:58:09.283Z,3.05
2019-01-21T07:00:42.070Z,3.05
2019-01-21T07:03:11.930Z,3.05
2019-01-21T07:05:44.582Z,3.02
2019-01-21T07:08:17.498Z,3.02
2019-01-21T07:10:44.544Z,2.86
2019-01-21T07:13:17.457Z,2.81
2019-01-21T07:15:51.380Z,2.80
2019-01-21T07:18:26.020Z,2.82
2019-01-21T07:21:09.845Z,2.90
2019-01-21T07:23:49.566Z,2.96
2019-01-21T07:26:19.377Z,3.00
2019-01-21T07:28:47.243Z,3.04
2019-01-21T07:31:14.189Z,3.21
2019-01-21T07:33:58.831Z,3.33
2019-01-21T07:36:31.512Z,3.44
2019-01-21T07:39:13.345Z,3.38
2019-01-21T07:41:56.020Z,3.45
2019-01-21T07:44:24.903Z,3.54
2019-01-21T07:47:07.563Z,3.61
2019-01-21T07:49:35.447Z,3.68
2019-01-21T07:52:12.361Z,3.78
2019-01-21T07:54:45.144Z,3.74
2019-01-21T07:57:13.057Z,3.79
2019-01-21T07:59:45.947Z,3.87
2019-01-21T08:02:15.590Z,4.03
2019-01-21T08:04:44.088Z,4.12
2019-01-21T08:07:15.488Z,4.18
2019-01-21T08:09:46.379Z,4.46
2019-01-21T08:12:29.126Z,4.68
2019-01-21T08:14:56.908Z,4.92
2019-01-21T08:17:34.749Z,5.12
2019-01-21T08:20:02.639Z,5.43
2019-01-21T08:22:31.560Z,5.53
2019-01-21T08:25:14.381Z,5.83
2019-01-21T08:27:56.344Z,6.13
2019-01-21T08:30:25.979Z,6.27
2019-01-21T08:33:08.697Z,6.29
2019-01-21T08:35:49.683Z,6.86
2019-01-21T08:38:31.532Z,7.35
2019-01-21T08:41:02.176Z,7.04
2019-01-21T08:43:35.019Z,6.66
2019-01-21T08:46:07.875Z,6.12
2019-01-21T08:48:54.894Z,5.98
2019-01-21T08:51:24.636Z,5.98
2019-01-21T08:53:53.426Z,5.96
2019-01-21T08:56:35.360Z,6.25
2019-01-21T08:59:03.082Z,6.49
2019-01-21T09:01:35.966Z,7.03
2019-01-21T09:04:22.836Z,6.75
2019-01-21T09:07:00.552Z,6.58
2019-01-21T09:09:27.450Z,6.58
2019-01-21T09:11:56.358Z,6.37
2019-01-21T09:14:24.079Z,6.31
2019-01-21T09:16:56.902Z,6.39
2019-01-21T09:19:27.728Z,6.65
2019-01-21T09:21:56.542Z,6.66
2019-01-21T09:24:30.400Z,6.58
2019-01-21T09:26:59.183Z,6.54
2019-01-21T09:29:43.093Z,6.85
2019-01-21T09:32:10.994Z,7.05
2019-01-21T09:34:40.895Z,7.02
2019-01-21T09:37:07.850Z,7.97
2019-01-21T09:39:34.838Z,8.94
2019-01-21T09:42:03.775Z,8.38
2019-01-21T09:44:33.511Z,7.72
2019-01-21T09:47:00.149Z,8.20
2019-01-21T09:49:26.801Z,9.72
2019-01-21T09:51:53.747Z,9.91
2019-01-21T09:54:20.678Z,8.61
2019-01-21T09:56:47.740Z,7.56
2019-01-21T09:59:14.686Z,7.10
2019-01-21T10:01:41.648Z,7.91
2019-01-21T10:04:08.601Z,10.08
2019-01-21T10:06:36.516Z,11.51
2019-01-21T10:09:06.117Z,12.30
2019-01-21T10:11:38.984Z,13.25
2019-01-21T10:14:12.119Z,13.19
2019-01-21T10:16:53.541Z,12.81
2019-01-21T10:19:30.438Z,13.44
2019-01-21T10:22:03.149Z,13.15
2019-01-21T10:24:31.782Z,11.74
2019-01-21T10:26:59.531Z,10.42
2019-01-21T10:29:36.501Z,9.77
2019-01-21T10:32:19.149Z,10.29
2019-01-21T10:34:47.138Z,11.41
2019-01-21T10:37:30.869Z,11.94
2019-01-21T10:40:12.700Z,12.50
2019-01-21T10:42:41.449Z,13.17
2019-01-21T10:45:09.169Z,12.54
2019-01-21T10:47:38.063Z,11.87
2019-01-21T10:50:18.957Z,10.70
2019-01-21T10:55:40.550Z,10.35
2019-01-21T10:58:08.452Z,10.97
2019-01-21T11:00:35.413Z,11.02
2019-01-21T11:03:12.164Z,10.71
2019-01-21T11:05:44.115Z,10.86
2019-01-21T11:08:13.890Z,12.03
2019-01-21T11:10:45.869Z,13.12
2019-01-21T11:13:13.816Z,13.48
2019-01-21T11:15:44.644Z,12.79
2019-01-21T11:18:15.472Z,12.51
2019-01-21T11:20:42.567Z,12.20
2019-01-21T11:23:12.465Z,12.11
2019-01-21T11:25:55.299Z,12.96
2019-01-21T11:28:23.052Z,13.57
2019-01-21T11:30:53.887Z,14.43
2019-01-21T11:33:25.664Z,14.33
2019-01-21T11:36:10.409Z,13.96
2019-01-21T11:38:37.402Z,13.42
2019-01-21T11:41:08.088Z,13.88
2019-01-21T11:43:40.063Z,14.36
2019-01-21T11:46:16.995Z,14.78
2019-01-21T11:48:44.751Z,14.96
2019-01-21T11:51:26.664Z,15.55
2019-01-21T11:54:08.480Z,15.50
2019-01-21T11:56:37.446Z,15.44
2019-01-21T11:59:04.631Z,15.52
2019-01-21T12:01:32.122Z,15.07
2019-01-21T12:04:04.275Z,15.15
2019-01-21T12:06:31.291Z,15.30
2019-01-21T12:08:59.118Z,16.63
2019-01-21T12:11:26.094Z,16.87
2019-01-21T12:13:58.885Z,17.30
2019-01-21T12:16:40.883Z,18.03
2019-01-21T12:19:07.837Z,17.94
2019-01-21T12:21:49.727Z,17.83
2019-01-21T12:24:16.686Z,16.41
2019-01-21T12:26:47.736Z,15.66
2019-01-21T12:29:19.675Z,15.53
2019-01-21T12:32:02.574Z,15.43
2019-01-21T12:34:41.089Z,16.23
2019-01-21T12:37:09.846Z,16.70
2019-01-21T12:39:42.654Z,17.75
2019-01-21T12:42:11.699Z,18.16
2019-01-21T12:44:44.458Z,17.44
2019-01-21T12:47:11.576Z,17.97
2019-01-21T12:49:39.510Z,18.18
2019-01-21T12:52:06.491Z,18.69
2019-01-21T12:54:35.309Z,18.82
2019-01-21T12:57:18.066Z,18.87
2019-01-21T12:59:45.890Z,19.26
2019-01-21T13:02:13.620Z,19.66
2019-01-21T13:04:40.701Z,20.19
2019-01-21T13:07:08.363Z,19.36
2019-01-21T13:09:51.133Z,19.59
2019-01-21T13:12:18.207Z,19.98
2019-01-21T13:14:46.123Z,19.63
2019-01-21T13:17:13.146Z,20.16
2019-01-21T13:19:46.127Z,21.01
2019-01-21T13:22:15.031Z,20.33
2019-01-21T13:24:47.771Z,20.19
2019-01-21T13:27:24.887Z,20.09
2019-01-21T13:29:51.849Z,20.03
2019-01-21T13:32:28.939Z,20.31
2019-01-21T13:34:59.682Z,20.58
2019-01-21T13:37:44.568Z,21.09
2019-01-21T13:40:16.358Z,21.12
2019-01-21T13:42:46.037Z,21.30
2019-01-21T13:45:27.885Z,21.92
2019-01-21T13:47:54.884Z,21.97
2019-01-21T13:50:22.463Z,21.23
2019-01-21T13:52:55.218Z,21.47
2019-01-21T13:55:23.066Z,21.36
2019-01-21T13:58:07.197Z,21.99
2019-01-21T14:00:37.099Z,21.61
2019-01-21T14:03:06.988Z,21.51
2019-01-21T14:05:38.883Z,20.93
2019-01-21T14:08:05.835Z,20.77
2019-01-21T14:10:47.770Z,21.27
2019-01-21T14:13:16.559Z,21.21
2019-01-21T14:15:44.307Z,21.54
2019-01-21T14:18:15.142Z,21.70
2019-01-21T14:20:51.059Z,21.89
2019-01-21T14:23:18.046Z,22.30
2019-01-21T14:25:47.835Z,22.19
2019-01-21T14:28:22.037Z,21.96
2019-01-21T14:30:54.801Z,21.46
2019-01-21T14:33:26.725Z,21.20
2019-01-21T14:36:08.685Z,22.07
2019-01-21T14:38:41.533Z,22.42
2019-01-21T14:41:08.531Z,22.07
2019-01-21T14:43:37.298Z,21.73
2019-01-21T14:46:12.010Z,21.64
2019-01-21T14:48:39.066Z,20.34
2019-01-21T14:51:06.048Z,18.69
2019-01-21T14:53:33.814Z,16.92
2019-01-21T14:56:16.447Z,15.94
2019-01-21T14:58:45.432Z,13.71
2019-01-21T15:01:16.083Z,14.10
2019-01-21T15:03:44.999Z,14.99
2019-01-21T15:06:12.099Z,15.82
2019-01-21T15:08:39.087Z,16.96
2019-01-21T15:11:08.468Z,17.65
2019-01-21T15:13:36.084Z,17.97
2019-01-21T15:16:09.894Z,17.91
2019-01-21T15:18:40.729Z,16.83
2019-01-21T15:21:10.301Z,14.23
2019-01-21T15:23:40.322Z,12.16
2019-01-21T15:26:13.061Z,11.11
2019-01-21T15:28:41.000Z,10.80
2019-01-21T15:31:24.535Z,9.80
2019-01-21T15:34:07.879Z,9.35
2019-01-21T15:36:52.024Z,8.89
2019-01-21T15:39:20.159Z,8.71
2019-01-21T15:41:47.708Z,8.41
2019-01-21T15:44:17.526Z,8.13
2019-01-21T15:46:51.287Z,7.95
2019-01-21T15:49:20.530Z,7.83
2019-01-21T15:52:04.187Z,7.64
2019-01-21T15:54:41.908Z,7.49
2019-01-21T15:57:12.567Z,7.32
2019-01-21T15:59:39.653Z,7.29
2019-01-21T16:02:07.444Z,7.30
2019-01-21T16:04:34.612Z,7.37
2019-01-21T16:07:06.084Z,7.16
2019-01-21T16:09:36.177Z,6.93
2019-01-21T16:12:19.019Z,6.89
2019-01-21T16:14:46.996Z,6.95
2019-01-21T16:17:18.693Z,6.89
2019-01-21T16:19:45.732Z,6.76
2019-01-21T16:22:13.706Z,6.76
2019-01-21T16:24:49.994Z,6.64
2019-01-21T16:27:17.670Z,6.64
2019-01-21T16:29:46.223Z,6.60
2019-01-21T16:32:13.209Z,6.53
2019-01-21T16:34:43.199Z,6.56
2019-01-21T16:37:12.065Z,6.55
2019-01-21T16:39:45.001Z,6.49
2019-01-21T16:42:12.634Z,6.51
2019-01-21T16:44:39.730Z,6.49
2019-01-21T16:47:06.729Z,6.50
2019-01-21T16:49:33.744Z,6.41
2019-01-21T16:52:00.761Z,6.34
2019-01-21T16:54:27.973Z,6.38
2019-01-21T16:56:54.920Z,6.35
2019-01-21T16:59:21.894Z,6.33
2019-01-21T17:01:48.858Z,6.32
2019-01-21T17:04:15.858Z,6.33
2019-01-21T17:06:42.887Z,6.31
2019-01-21T17:09:09.884Z,6.29
2019-01-21T17:11:36.836Z,6.36
2019-01-21T17:14:03.922Z,6.29
2019-01-21T17:16:30.886Z,6.27
2019-01-21T17:18:57.901Z,6.28
2019-01-21T17:21:27.050Z,6.29
2019-01-21T17:23:51.928Z,6.26
2019-01-21T17:26:18.881Z,6.25
2019-01-21T17:28:45.842Z,6.21
2019-01-21T17:31:12.856Z,6.20
2019-01-21T17:33:40.758Z,6.14
2019-01-21T17:36:07.763Z,6.10
2019-01-21T17:38:34.773Z,6.09
2019-01-21T17:41:01.898Z,6.09
2019-01-21T17:43:28.910Z,6.07
2019-01-21T17:45:55.891Z,6.12
2019-01-21T17:48:23.799Z,6.08
2019-01-21T17:50:50.767Z,6.00
2019-01-21T17:53:17.785Z,5.93
2019-01-21T17:55:45.165Z,5.91
2019-01-21T17:58:12.188Z,5.91
2019-01-21T18:00:39.118Z,5.94
2019-01-21T18:03:06.183Z,5.97
2019-01-21T18:05:33.143Z,5.92
2019-01-21T18:08:00.139Z,5.86
2019-01-21T18:10:27.267Z,5.86
2019-01-21T18:12:54.212Z,5.79
2019-01-21T18:15:21.242Z,5.69
2019-01-21T18:17:48.421Z,5.59
2019-01-21T18:20:15.393Z,5.56
2019-01-21T18:22:42.372Z,5.43
2019-01-21T18:25:09.439Z,5.35
2019-01-21T18:27:36.471Z,5.40
2019-01-21T18:30:03.490Z,5.33
2019-01-21T18:32:30.494Z,5.30
2019-01-21T18:34:57.505Z,5.33
2019-01-21T18:37:24.485Z,5.30
2019-01-21T18:39:51.766Z,5.18
2019-01-21T18:42:18.835Z,5.17
2019-01-21T18:44:45.790Z,5.05
2019-01-21T18:47:12.746Z,4.98
2019-01-21T18:49:39.731Z,5.01
2019-01-21T18:52:06.697Z,4.97
2019-01-21T18:54:33.778Z,4.88
2019-01-21T18:57:00.818Z,4.75
2019-01-21T18:59:27.780Z,4.73
2019-01-21T19:01:54.822Z,4.72
2019-01-21T19:04:21.793Z,4.68
2019-01-21T19:06:48.734Z,4.68
2019-01-21T19:09:15.782Z,4.72
2019-01-21T19:11:42.793Z,4.71
2019-01-21T19:14:10.758Z,4.59
2019-01-21T19:16:37.731Z,4.53
2019-01-21T19:19:04.684Z,4.51
2019-01-21T19:21:33.542Z,4.49
2019-01-21T19:24:00.519Z,4.49
2019-01-21T19:26:27.477Z,4.49
2019-01-21T19:28:55.104Z,4.48
2019-01-21T19:31:22.070Z,4.51
2019-01-21T19:33:49.831Z,4.45
2019-01-21T19:36:17.448Z,4.41
2019-01-21T19:38:45.480Z,4.41
2019-01-21T19:41:12.575Z,4.37
2019-01-21T19:43:39.715Z,4.36
2019-01-21T19:46:06.686Z,4.32
2019-01-21T19:48:33.633Z,4.21
2019-01-21T19:51:00.615Z,4.16
2019-01-21T19:53:27.551Z,4.14
2019-01-21T19:55:54.505Z,4.09
2019-01-21T19:58:21.499Z,4.02
2019-01-21T20:00:48.446Z,4.02
2019-01-21T20:03:15.397Z,3.94
2019-01-21T20:05:42.368Z,3.78
2019-01-21T20:08:09.315Z,3.83
2019-01-21T20:10:36.300Z,3.84
2019-01-21T20:13:03.301Z,3.88
2019-01-21T20:15:30.245Z,3.83
2019-01-21T20:17:57.310Z,3.80
2019-01-21T20:20:25.250Z,3.76
2019-01-21T20:22:57.476Z,3.65
2019-01-21T20:25:19.329Z,3.57
2019-01-21T20:27:46.421Z,3.57
2019-01-21T20:30:14.391Z,3.56
2019-01-21T20:32:42.387Z,3.55
2019-01-21T20:35:08.647Z,3.58
2019-01-21T20:37:36.350Z,3.53
2019-01-21T20:40:03.398Z,3.48
2019-01-21T20:42:30.513Z,3.45
2019-01-21T20:44:57.574Z,3.46
2019-01-21T20:47:29.826Z,3.47
2019-01-21T20:49:56.956Z,3.41
2019-01-21T20:52:24.163Z,3.43
2019-01-21T20:54:51.280Z,3.48
2019-01-21T20:57:18.594Z,3.49
2019-01-21T20:59:45.622Z,3.50
2019-01-21T21:02:12.644Z,3.49
2019-01-21T21:04:39.703Z,3.48
2019-01-21T21:07:06.863Z,3.43
2019-01-21T21:09:33.916Z,3.36
2019-01-21T21:12:00.994Z,3.30
2019-01-21T21:14:28.150Z,3.23
2019-01-21T21:16:55.606Z,3.27
2019-01-21T21:19:22.753Z,3.24
2019-01-21T21:21:49.780Z,3.20
2019-01-21T21:24:16.823Z,3.24
2019-01-21T21:26:43.850Z,3.23
2019-01-21T21:29:10.883Z,3.21
2019-01-21T21:31:37.903Z,3.25
2019-01-21T21:34:05.251Z,3.21
2019-01-21T21:36:32.366Z,3.21
2019-01-21T21:38:59.448Z,3.14
2019-01-21T21:41:26.697Z,3.08
2019-01-21T21:43:53.726Z,3.01
2019-01-21T21:46:20.757Z,3.05
2019-01-21T21:48:47.829Z,3.01
2019-01-21T21:51:14.887Z,2.94
2019-01-21T21:53:41.945Z,3.00
2019-01-21T21:56:08.971Z,3.02
2019-01-21T21:58:36.002Z,3.11
2019-01-21T22:01:03.032Z,2.96
2019-01-21T22:03:30.040Z,2.95
2019-01-21T22:05:57.088Z,3.00
2019-01-21T22:08:24.147Z,3.04
2019-01-21T22:10:51.202Z,3.02
2019-01-21T22:13:18.230Z,3.00
2019-01-21T22:15:45.245Z,2.96
2019-01-21T22:18:12.257Z,2.95
2019-01-21T22:20:39.326Z,2.98
2019-01-21T22:23:06.516Z,2.93
2019-01-21T22:25:33.769Z,2.89
2019-01-21T22:28:00.833Z,2.89
2019-01-21T22:30:28.514Z,2.89
2019-01-21T22:32:55.576Z,2.88
2019-01-21T22:35:22.615Z,2.89
2019-01-21T22:37:49.725Z,2.93
2019-01-21T22:40:16.806Z,3.02
2019-01-21T22:42:43.852Z,3.05
2019-01-21T22:45:10.909Z,3.12
2019-01-21T22:47:37.948Z,3.21
2019-01-21T22:50:05.066Z,3.29
2019-01-21T22:52:32.073Z,3.33
2019-01-21T22:54:59.108Z,3.26
2019-01-21T22:57:26.134Z,3.24
2019-01-21T22:59:53.207Z,3.28
2019-01-21T23:02:20.222Z,3.26
2019-01-21T23:04:47.238Z,3.27
2019-01-21T23:07:14.293Z,3.32
2019-01-21T23:09:41.328Z,3.37
2019-01-21T23:12:08.388Z,3.28
2019-01-21T23:14:35.487Z,3.24
2019-01-21T23:17:02.603Z,3.32
2019-01-21T23:19:30.564Z,3.35
2019-01-21T23:21:57.665Z,3.35
2019-01-21T23:24:24.698Z,3.36
2019-01-21T23:26:51.724Z,3.33
2019-01-21T23:29:18.747Z,3.33
2019-01-21T23:31:45.815Z,3.27
2019-01-21T23:34:12.852Z,3.31
2019-01-21T23:36:39.940Z,3.30
2019-01-21T23:39:06.969Z,3.29
2019-01-21T23:41:33.994Z,3.25
2019-01-21T23:44:01.036Z,3.43
2019-01-21T23:46:33.895Z,3.37
2019-01-21T23:49:00.925Z,3.28
2019-01-21T23:51:28.245Z,3.25
2019-01-21T23:53:55.271Z,3.34
2019-01-21T23:56:22.300Z,3.40
2019-01-21T23:58:49.341Z,3.42
